Flight Track Log - Related Links

Times and Time Zones

All times are in EDT time to prevent confusion due to time zone crossing. See the AFR3887 flight status page for this flight to view local times or setup timezone preferences in your user account.

Time Position Orientation Groundspeed Altitude Reporting Facility
EDT Latitude Longitude Course Direction KTS MPH feet Rate Location/Type
Mon 06:43:00 PM 31.8060 35.8930 314° West  Level Estimated
Mon 06:44:00 PM 31.8890 35.7930 314° West  Level Estimated
Mon 06:45:00 PM 31.9719 35.6929 314° West  Level Estimated
Mon 06:46:00 PM 32.0548 35.5925 314° West  Level Estimated
Mon 06:47:00 PM 32.1376 35.4920 314° West  Level Estimated
Mon 06:47:04 PM 31.7681 35.6980 291° West 268 308 9,900  Level FlightAware ADS-B (LLHA / HFA)
Mon 06:47:35 PM 31.7825 35.6528 291° West 276 318 11,000 1,600 Climbing FlightAware ADS-B (LLHA / HFA)
Mon 06:48:04 PM 31.7957 35.6114 291° West 298 343 11,500 1,017 Climbing FlightAware ADS-B (LLHA / HFA)
Mon 06:48:34 PM 31.8111 35.5615 290° West 326 375 12,000 700 Climbing FlightAware ADS-B (LLHA / HFA)
Mon 06:49:04 PM 31.8263 35.5084 289° West 352 405 12,200 122 Climbing FlightAware ADS-B (LLHA / HFA)
Mon 06:49:23 PM 31.8449 35.4785 312° West 369 425 12,100 -118 Descending FlightAware ADS-B (LLHA / HFA)
Mon 06:49:55 PM 31.8794 35.4328 312° West 369 425 12,100  Level FlightAware ADS-B (LLHA / HFA)
Mon 06:50:24 PM 31.9123 35.3887 312° West 367 422 12,100  Level FlightAware ADS-B (LLHA / HFA)
Mon 06:50:55 PM 31.9486 35.3398 312° West 369 425 12,100 100 Level FlightAware ADS-B (LLHA / HFA)
Mon 06:51:24 PM 31.9822 35.2945 312° West 368 423 12,200 712 Climbing FlightAware ADS-B (LLHA / HFA)
Mon 06:51:54 PM 32.0157 35.2495 311° West 373 429 12,800 750 Climbing FlightAware ADS-B (LLHA / HFA)
Mon 06:52:44 PM 32.0704 35.1754 311° West 376 433 13,200 300 Climbing FlightAware ADS-B (LLHA / HFA)
Mon 06:53:14 PM 32.1067 35.1261 311° West 372 428 13,200 -111 Level FlightAware ADS-B (LLHA / HFA)
Mon 06:53:38 PM 32.1321 35.0917 311° West 370 426 13,100 -107 Descending FlightAware ADS-B (LLHA / HFA)
Mon 06:54:10 PM 32.1529 35.0635 311° West 370 426 13,100  Level FlightAware ADS-B (LLHA / HFA)
Mon 06:54:46 PM 32.2062 34.9832 294° West 372 428 13,100  Level FlightAware ADS-B (LLJR / JRS)
Mon 06:55:26 PM 32.2270 34.9039 287° West 374 430 13,100  Level FlightAware ADS-B (LLJR / JRS)
Mon 06:55:56 PM 32.2422 34.8454 287° West 374 430 13,100  Level FlightAware ADS-B (LLJR / JRS)
Mon 06:56:06 PM 32.2485 34.8261 297° West 373 429 13,100  Level FlightAware ADS-B (LLJR / JRS)
Mon 06:56:17 PM 32.2574 34.8101 309° West 372 428 13,100  Level FlightAware ADS-B (LLJR / JRS)
Mon 06:56:26 PM 32.2702 34.7959 322° Northwest 372 428 13,100  Level FlightAware ADS-B (LLJR / JRS)
Mon 06:56:36 PM 32.2818 34.7873 334° Northwest 374 430 13,100  Level FlightAware ADS-B (LLJR / JRS)
Mon 06:57:17 PM 32.3499 34.7540 338° Northwest 374 430 13,100  Level FlightAware ADS-B (LLJR / JRS)
Mon 06:57:46 PM 32.3938 34.7326 338° Northwest 376 433 13,100  Level FlightAware ADS-B (LLJR / JRS)
Mon 06:58:05 PM 32.4273 34.7164 338° Northwest 374 430 13,100 94 Level FlightAware ADS-B (LLJR / JRS)
Mon 06:58:50 PM 32.4990 34.6815 338° Northwest 375 432 13,200 730 Climbing FlightAware ADS-B (LLHA / HFA)
Mon 06:59:19 PM 32.5477 34.6580 338° Northwest 379 436 14,000 1,800 Climbing FlightAware ADS-B (LLHA / HFA)
Mon 06:59:50 PM 32.5973 34.6339 338° Northwest 382 440 15,000 1,770 Climbing FlightAware ADS-B (LLHA / HFA)
Mon 07:00:20 PM 32.6466 34.6099 338° Northwest 387 445 15,800 1,525 Climbing FlightAware ADS-B (LLHA / HFA)
Mon 07:00:49 PM 32.6969 34.5854 338° Northwest 395 455 16,500 1,500 Climbing FlightAware ADS-B (LLHA / HFA)
Mon 07:01:20 PM 32.7485 34.5601 338° Northwest 399 459 17,300 1,377 Climbing FlightAware ADS-B (LLHA / HFA)
Mon 07:01:50 PM 32.8019 34.5420 355° North 409 471 17,900 1,525 Climbing FlightAware ADS-B (LLHA / HFA)
Mon 07:02:19 PM 32.8584 34.5366 356° North 410 472 18,800 1,627 Climbing FlightAware ADS-B (LLHA / HFA)
Mon 07:02:49 PM 32.9154 34.5312 356° North 414 476 19,500 1,279 Climbing FlightAware ADS-B (LLHA / HFA)
Mon 07:03:20 PM 32.9737 34.5256 356° North 420 483 20,100 1,082 Climbing FlightAware ADS-B (LLHA / HFA)
Mon 07:03:50 PM 33.0321 34.5199 356° North 427 491 20,600 1,000 Climbing FlightAware ADS-B (LLHA / HFA)
Mon 07:04:20 PM 33.0913 34.5141 356° North 435 501 21,100 1,400 Climbing FlightAware ADS-B (LLHA / HFA)
Mon 07:04:50 PM 33.1521 34.5083 356° North 429 494 22,000 1,200 Climbing FlightAware ADS-B (LLHA / HFA)
Mon 07:05:20 PM 33.2119 34.5025 356° North 440 506 22,300 712 Climbing FlightAware ADS-B (LLHA / HFA)
Mon 07:05:49 PM 33.2736 34.4965 356° North 448 516 22,700 915 Climbing FlightAware ADS-B (LLHA / HFA)
Mon 07:06:19 PM 33.3356 34.4905 356° North 451 519 23,200 960 Climbing FlightAware ADS-B (LLHA / HFA)
Mon 07:06:39 PM 33.3760 34.4826 343° North 447 514 23,500 774 Climbing FlightAware ADS-B (LLHA / HFA)
Mon 07:06:50 PM 33.3954 34.4719 330° Northwest 441 507 23,600 600 Climbing FlightAware ADS-B (LLHA / HFA)
Mon 07:06:59 PM 33.4115 34.4573 319° Northwest 435 501 23,700 900 Climbing FlightAware ADS-B (LLHA / HFA)
Mon 07:07:10 PM 33.4252 34.4396 309° West 429 494 23,900 913 Climbing FlightAware ADS-B (LLHA / HFA)
Mon 07:07:45 PM 33.4641 34.3713 305° West 431 496 24,400 1,031 Climbing FlightAware ADS-B (LLHA / HFA)
Mon 07:08:14 PM 33.4981 34.3126 305° West 426 490 25,000 1,017 Climbing FlightAware ADS-B (LLHA / HFA)
Mon 07:08:44 PM 33.5311 34.2552 305° West 428 493 25,400 689 Climbing FlightAware ADS-B (LLHA / HFA)
Mon 07:09:15 PM 33.5649 34.1962 305° West 431 496 25,700 600 Climbing FlightAware ADS-B (LLHA / HFA)
Mon 07:09:44 PM 33.5985 34.1377 305° West 433 498 26,000 610 Climbing FlightAware ADS-B (LLHA / HFA)
Mon 07:10:14 PM 33.6332 34.0771 305° West 437 503 26,300 492 Climbing FlightAware ADS-B (LLHA / HFA)
Mon 07:10:45 PM 33.6674 34.0173 305° West 439 505 26,500 500 Climbing FlightAware ADS-B (LLHA / HFA)
Mon 07:11:14 PM 33.7020 33.9564 305° West 441 507 26,800 610 Climbing FlightAware ADS-B (LLHA / HFA)
Mon 07:11:44 PM 33.7360 33.8967 305° West 442 509 27,100 492 Climbing FlightAware ADS-B (LLHA / HFA)
Mon 07:12:15 PM 33.7717 33.8338 305° West 443 510 27,300 600 Climbing FlightAware ADS-B (LLHA / HFA)
Mon 07:12:44 PM 33.8060 33.7733 305° West 442 509 27,700 600 Climbing FlightAware ADS-B (LLHA / HFA)
Mon 07:13:15 PM 33.8406 33.7122 305° West 445 512 27,900 277 Climbing FlightAware ADS-B (LLHA / HFA)
Mon 07:13:49 PM 33.8813 33.6402 305° West 447 514 28,000 375 Climbing FlightAware ADS-B (LLHA / HFA)
Mon 07:14:19 PM 33.9162 33.5781 305° West 449 517 28,300 500 Climbing FlightAware ADS-B (LLHA / HFA)
Mon 07:14:49 PM 33.9510 33.5163 305° West 450 518 28,500 590 Climbing FlightAware ADS-B (LLHA / HFA)
Mon 07:15:20 PM 33.9852 33.4555 304° West 445 512 28,900 590 Climbing FlightAware ADS-B (LLHA / HFA)
Mon 07:15:50 PM 34.0208 33.3920 305° West 448 516 29,100 300 Climbing FlightAware ADS-B (LLHA / HFA)
Mon 07:16:20 PM 34.0559 33.3293 304° West 450 518 29,200 400 Climbing FlightAware ADS-B (LLHA / HFA)
Mon 07:16:50 PM 34.0896 33.2690 304° West 451 519 29,500 500 Climbing FlightAware ADS-B (LLHA / HFA)
Mon 07:17:20 PM 34.1254 33.2050 304° West 450 518 29,700 500 Climbing FlightAware ADS-B (LLHA / HFA)
Mon 07:17:50 PM 34.1600 33.1428 304° West 449 517 30,000 610 Climbing FlightAware ADS-B (LLHA / HFA)
Mon 07:18:19 PM 34.1950 33.0797 304° West 448 516 30,300 700 Climbing FlightAware ADS-B (LLHA / HFA)
Mon 07:18:50 PM 34.2294 33.0179 304° West 443 510 30,700 800 Climbing FlightAware ADS-B (LLHA / HFA)
Mon 07:19:19 PM 34.2631 32.9570 304° West 440 506 31,100 600 Climbing FlightAware ADS-B (LLHA / HFA)
Mon 07:19:50 PM 34.2974 32.8951 304° West 440 506 31,300 492 Climbing FlightAware ADS-B (LLHA / HFA)
Mon 07:20:20 PM 34.3309 32.8340 304° West 439 505 31,600 500 Climbing FlightAware ADS-B (LLHA / HFA)
Mon 07:20:50 PM 34.3640 32.7739 304° West 438 504 31,800 414 Climbing FlightAware ADS-B (LLHA / HFA)
Mon 07:21:18 PM 34.3932 32.7213 304° West 439 505 32,000 203 Climbing FlightAware ADS-B (LLHA / HFA)
Mon 07:21:49 PM 34.4323 32.6503 304° West 445 512 32,000  Level FlightAware ADS-B (LLHA / HFA)
Mon 07:22:19 PM 34.4665 32.5879 304° West 442 509 32,000  Level FlightAware ADS-B (LLHA / HFA)
Mon 07:22:49 PM 34.5005 32.5259 304° West 442 509 32,000  Level FlightAware ADS-B (LLHA / HFA)
Mon 07:23:19 PM 34.5345 32.4636 304° West 442 509 32,000  Level FlightAware ADS-B (LLHA / HFA)
Mon 07:23:50 PM 34.5682 32.4017 304° West 442 509 32,000  Level FlightAware ADS-B (LLHA / HFA)
Mon 07:24:16 PM 34.5981 32.3469 304° West 442 509 32,000  Level FlightAware ADS-B (LLHA / HFA)
Mon 07:24:49 PM 34.6354 32.2783 304° West 441 507 32,000  Level FlightAware ADS-B (LLHA / HFA)
Mon 07:25:19 PM 34.6693 32.2159 304° West 441 507 32,000  Level FlightAware ADS-B (LLHA / HFA)
Mon 07:25:49 PM 34.7009 32.1574 304° West 441 507 32,000  Level FlightAware ADS-B (LLHA / HFA)
Mon 07:26:19 PM 34.7317 32.1005 304° West 442 509 32,000  Level FlightAware ADS-B (LLHA / HFA)
Mon 07:26:49 PM 34.7698 32.0303 304° West 442 509 32,000  Level FlightAware ADS-B (LLHA / HFA)
Mon 07:27:20 PM 34.8038 31.9672 304° West 444 511 32,000  Level FlightAware ADS-B (LLHA / HFA)
Mon 07:27:49 PM 34.8375 31.9044 304° West 445 512 32,000  Level FlightAware ADS-B (LLHA / HFA)
Mon 07:28:19 PM 34.8672 31.8489 303° West 445 512 32,000  Level FlightAware ADS-B (LLHA / HFA)
Mon 07:28:47 PM 34.8918 31.8031 304° West 445 512 32,000  Level FlightAware ADS-B (LLHA / HFA)
Mon 07:29:20 PM 34.9390 31.7147 303° West 445 512 32,000  Level FlightAware ADS-B (LLHA / HFA)
Mon 07:29:49 PM 34.9722 31.6525 303° West 444 511 32,000 102 Level FlightAware ADS-B (LLHA / HFA)
Mon 07:30:19 PM 35.0047 31.5916 304° West 441 507 32,100  Climbing FlightAware ADS-B (LLHA / HFA)
Mon 07:30:50 PM 35.0391 31.5271 303° West 439 505 32,000 -78 Descending FlightAware ADS-B (LLHA / HFA)
Mon 07:31:36 PM 35.0852 31.4403 303° West 439 505 32,000  Level FlightAware ADS-B (LLHA / HFA)
Mon 07:31:52 PM 35.1069 31.3994 303° West 439 505 32,000  Level FlightAware ADS-B (LLHA / HFA)
Mon 07:32:40 PM 35.1602 31.2985 303° West 439 505 32,000  Level FlightAware ADS-B (LLHA / HFA)
Mon 07:33:09 PM 35.1932 31.2359 303° West 439 505 32,000  Level FlightAware ADS-B (LLHA / HFA)
Mon 07:33:39 PM 35.2262 31.1732 303° West 440 506 32,000  Level FlightAware ADS-B (LLHA / HFA)
Mon 07:33:54 PM 35.2382 31.1504 303° West 441 507 32,000  Level FlightAware ADS-B (LLHA / HFA)
Mon 07:34:55 PM 35.3078 31.0179 303° West 441 507 32,000 28 Level FlightAware ADS-B (LLHA / HFA)
Mon 07:37:00 PM 35.4735 30.7925 312° West  Level Estimated
Mon 07:38:00 PM 35.5530 30.6841 312° West  Level Estimated
Mon 07:39:00 PM 35.6323 30.5754 312° West  Level Estimated
Mon 07:40:00 PM 35.7115 30.4664 312° West  Level Estimated
Mon 07:41:00 PM 35.7906 30.3573 312° West  Level Estimated
Mon 07:42:00 PM 35.8696 30.2479 312° West  Level Estimated
Mon 07:43:00 PM 35.9486 30.1384 312° West  Level Estimated
Mon 07:44:00 PM 36.0274 30.0286 312° West  Level Estimated
Mon 07:45:00 PM 36.1061 29.9186 312° West  Level Estimated
Mon 07:46:00 PM 36.1847 29.8083 311° West  Level Estimated
Mon 07:47:00 PM 36.2633 29.6979 311° West  Level Estimated
Mon 07:48:00 PM 36.3417 29.5872 311° West  Level Estimated
Mon 07:49:00 PM 36.4200 29.4763 311° West  Level Estimated
Mon 07:50:00 PM 36.4982 29.3652 311° West  Level Estimated
Mon 07:51:00 PM 36.5763 29.2538 311° West  Level Estimated
Mon 07:52:00 PM 36.6543 29.1422 311° West  Level Estimated
Mon 07:53:00 PM 36.7323 29.0304 311° West  Level Estimated
Mon 07:54:00 PM 36.8101 28.9184 311° West  Level Estimated
Mon 07:55:00 PM 36.8877 28.8062 311° West  Level Estimated
Mon 07:56:00 PM 36.9653 28.6937 311° West  Level Estimated
Mon 07:57:00 PM 37.0428 28.5810 311° West  Level Estimated
Mon 07:58:00 PM 37.1202 28.4680 311° West  Level Estimated
Mon 07:59:00 PM 37.1975 28.3548 311° West  Level Estimated
Mon 08:00:00 PM 37.2746 28.2414 311° West  Level Estimated
Mon 08:01:00 PM 37.3517 28.1278 310° West  Level Estimated
Mon 08:02:00 PM 37.4286 28.0139 310° West  Level Estimated
Mon 08:03:00 PM 37.5055 27.8998 310° West  Level Estimated
Mon 08:04:00 PM 37.5822 27.7855 310° West  Level Estimated
Mon 08:05:00 PM 37.6588 27.6709 310° West  Level Estimated
Mon 08:06:00 PM 37.7353 27.5561 310° West  Level Estimated
Mon 08:07:00 PM 37.8117 27.4410 310° West  Level Estimated
Mon 08:08:00 PM 37.8880 27.3258 310° West  Level Estimated
Mon 08:09:00 PM 37.9641 27.2102 310° West  Level Estimated
Mon 08:10:00 PM 38.0402 27.0945 310° West  Level Estimated
Mon 08:11:00 PM 38.1161 26.9785 310° West  Level Estimated
Mon 08:12:00 PM 38.1920 26.8622 310° West  Level Estimated
Mon 08:13:00 PM 38.2677 26.7457 310° West  Level Estimated
Mon 08:14:00 PM 38.3433 26.6290 310° West  Level Estimated
Mon 08:15:00 PM 38.4187 26.5120 309° West  Level Estimated
Mon 08:16:00 PM 38.4941 26.3948 309° West  Level Estimated
Mon 08:17:00 PM 38.5693 26.2773 309° West  Level Estimated
Mon 08:18:00 PM 38.6445 26.1596 309° West  Level Estimated
Mon 08:19:00 PM 38.7195 26.0416 309° West  Level Estimated
Mon 08:20:00 PM 38.7944 25.9234 309° West  Level Estimated
Mon 08:21:00 PM 38.8691 25.8050 309° West  Level Estimated
Mon 08:22:00 PM 38.9438 25.6863 309° West  Level Estimated
Mon 08:23:00 PM 39.0183 25.5673 309° West  Level Estimated
Mon 08:24:00 PM 39.0927 25.4481 309° West  Level Estimated
Mon 08:25:00 PM 39.1670 25.3286 309° West  Level Estimated
Mon 08:26:00 PM 39.2412 25.2089 309° West  Level Estimated
Mon 08:27:00 PM 39.3152 25.0890 309° West  Level Estimated
Mon 08:28:00 PM 39.3891 24.9688 309° West  Level Estimated
Mon 08:29:00 PM 39.4629 24.8483 308° West  Level Estimated
Mon 08:30:00 PM 39.5366 24.7275 308° West  Level Estimated
Mon 08:31:00 PM 39.6102 24.6066 308° West  Level Estimated
Mon 08:32:00 PM 39.6836 24.4853 308° West  Level Estimated
Mon 08:33:00 PM 39.7569 24.3638 308° West  Level Estimated
Mon 08:34:00 PM 39.8300 24.2421 308° West  Level Estimated
Mon 08:35:00 PM 39.9031 24.1200 308° West  Level Estimated
Mon 08:36:00 PM 39.9760 23.9978 308° West  Level Estimated
Mon 08:37:00 PM 40.0488 23.8752 308° West  Level Estimated
Mon 08:38:00 PM 40.1214 23.7524 308° West  Level Estimated
Mon 08:39:00 PM 40.1940 23.6294 308° West  Level Estimated
Mon 08:40:00 PM 40.2663 23.5060 308° West  Level Estimated
Mon 08:41:00 PM 40.3386 23.3824 308° West  Level Estimated
Mon 08:42:00 PM 40.4107 23.2586 307° West  Level Estimated
Mon 08:43:00 PM 40.4827 23.1345 307° West  Level Estimated
Mon 08:44:00 PM 40.5546 23.0101 307° West  Level Estimated
Mon 08:45:00 PM 40.6263 22.8854 307° West  Level Estimated
Mon 08:45:42 PM 40.9730 23.0622 320° Northwest 452 520 34,000  Level FlightAware ADS-B (LWSK / SKP)
Mon 08:46:00 PM 40.6979 22.7605 307° West  Level Estimated
Mon 08:46:22 PM 41.0351 22.9937 320° Northwest 453 521 34,000  Level FlightAware ADS-B (LWSK / SKP)
Mon 08:49:02 PM 41.2693 22.6822 312° West 450 518 34,000  Level FlightAware ADS-B (LWSK / SKP)
Mon 08:49:42 PM 41.3257 22.5997 312° West 450 518 34,000  Level FlightAware ADS-B (LWSK / SKP)
Mon 08:50:22 PM 41.3785 22.5225 312° West 450 518 34,000  Level FlightAware ADS-B (LWSK / SKP)
Mon 08:51:02 PM 41.4255 22.4537 312° West 450 518 34,000  Level FlightAware ADS-B (LWSK / SKP)
Mon 08:53:02 PM 41.5989 22.1982 312° West 452 520 34,000  Level FlightAware ADS-B (LWSK / SKP)
Mon 08:54:05 PM 41.6958 22.0545 312° West 454 522 34,000 422 Level FlightAware ADS-B (LIBX)
Mon 08:56:21 PM 41.8839 21.7735 312° West 459 528 35,400 614 Climbing FlightAware ADS-B (LIBX)
Mon 08:56:51 PM 41.9303 21.7036 312° West 460 529 35,700 600 Climbing FlightAware ADS-B (LIBX)
Mon 08:57:21 PM 41.9726 21.6399 312° West 463 533 36,000 300 Climbing FlightAware ADS-B (LIBX)
Mon 08:57:51 PM 42.0151 21.5758 312° West 463 533 36,000  Level FlightAware ADS-B (LIBX)
Mon 08:58:21 PM 42.0590 21.5094 312° West 461 531 36,000  Level FlightAware ADS-B (LIBX)
Mon 08:58:45 PM 42.0908 21.4614 312° West 461 531 36,000  Level FlightAware ADS-B (LIBX)
Mon 08:59:21 PM 42.1432 21.3819 312° West 463 533 36,000  Level FlightAware ADS-B (LIBX)
Mon 08:59:51 PM 42.1861 21.3165 312° West 464 534 36,000  Level FlightAware ADS-B (LIBX)
Mon 09:00:19 PM 42.2235 21.2593 312° West 464 534 36,000  Level FlightAware ADS-B (LIBX)
Mon 09:00:51 PM 42.2602 21.2032 312° West 466 536 36,000  Level FlightAware ADS-B (LIBX)
Mon 09:01:18 PM 42.3086 21.1289 312° West 467 537 36,000  Level FlightAware ADS-B (LIBX)
Mon 09:01:51 PM 42.3563 21.0555 312° West 469 540 36,000  Level FlightAware ADS-B (LIBX)
Mon 09:02:21 PM 42.3998 20.9884 312° West 474 545 36,000  Level FlightAware ADS-B (LIBX)
Mon 09:02:51 PM 42.4426 20.9225 312° West 476 548 36,000  Level FlightAware ADS-B (LIBX)
Mon 09:03:21 PM 42.4859 20.8556 312° West 476 548 36,000  Level FlightAware ADS-B (LIBX)
Mon 09:03:46 PM 42.5219 20.7997 312° West 479 551 36,000  Level FlightAware ADS-B (LIBX)
Mon 09:04:20 PM 42.5714 20.7228 312° West 481 554 36,000 92 Level FlightAware ADS-B (LIBX)
Mon 09:04:51 PM 42.6178 20.6505 312° West 481 554 36,100 98 Climbing FlightAware ADS-B (LIBX)
Mon 09:05:21 PM 42.6617 20.5821 311° West 479 551 36,100 -118 Level FlightAware ADS-B (LIBX)
Mon 09:05:42 PM 42.6858 20.5443 311° West 476 548 36,000 -63 Descending FlightAware ADS-B (LIBX)
Mon 09:06:56 PM 42.7989 20.3668 311° West 476 548 36,000  Level FlightAware ADS-B (LIBX)
Mon 09:07:26 PM 42.8412 20.3000 311° West 477 549 36,000  Level FlightAware ADS-B (LIBX)
Mon 09:07:56 PM 42.8836 20.2303 310° West 476 548 36,000  Level FlightAware ADS-B (LIBX)
Mon 09:08:26 PM 42.9204 20.1576 300° West 465 535 36,000  Level FlightAware ADS-B (LIBX)
Mon 09:09:06 PM 42.9590 20.0555 298° West 463 533 36,000  Level FlightAware ADS-B (LIBX)
Mon 09:09:29 PM 42.9797 20.0005 298° West 463 533 36,000  Level FlightAware ADS-B (LIBX)
Mon 09:09:57 PM 43.0035 19.9373 298° West 463 533 36,000  Level FlightAware ADS-B (LIBX)
Mon 09:10:51 PM 43.0622 19.7808 298° West 463 533 36,000  Level FlightAware ADS-B (LIBX)
Mon 09:11:21 PM 43.0906 19.7047 298° West 463 533 36,000  Level FlightAware ADS-B (LIBX)
Mon 09:11:51 PM 43.1204 19.6247 298° West 463 533 36,000  Level FlightAware ADS-B (LIBX)
Mon 09:12:19 PM 43.1466 19.5544 298° West 463 533 36,000  Level FlightAware ADS-B (LIBX)
Mon 09:12:50 PM 43.1745 19.4773 297° West 457 526 36,000  Level FlightAware ADS-B (LIBX)
Mon 09:13:21 PM 43.2055 19.3916 297° West 457 526 36,000  Level FlightAware ADS-B (LIBX)
Mon 09:13:51 PM 43.2338 19.3130 297° West 454 522 36,000  Level FlightAware ADS-B (LIBX)
Mon 09:14:21 PM 43.2612 19.2371 297° West 453 521 36,000  Level FlightAware ADS-B (LIBX)
Mon 09:14:51 PM 43.2885 19.1612 297° West 450 518 36,000 -75 Level FlightAware ADS-B (LIBX)
Mon 09:15:41 PM 43.3351 19.0306 297° West 453 521 35,900 -75 Descending FlightAware ADS-B (LIBX)
Mon 09:16:11 PM 43.3615 18.9566 297° West 458 527 35,900 80 Level FlightAware ADS-B (LIBX)
Mon 09:16:56 PM 43.4042 18.8361 297° West 460 529 36,000 80 Climbing FlightAware ADS-B (LIBX)
Mon 09:17:26 PM 43.4326 18.7558 296° West 461 531 36,000 102 Level FlightAware ADS-B (LIBX)
Mon 09:17:55 PM 43.4533 18.6972 296° West 460 529 36,100 118 Climbing FlightAware ADS-B (LIBX)
Mon 09:18:17 PM 43.4792 18.6239 296° West 457 526 36,100 -98 Level FlightAware ADS-B (LIBX)
Mon 09:18:56 PM 43.5151 18.5216 296° West 454 522 36,000 -87 Descending FlightAware ADS-B (LIBX)
Mon 09:19:26 PM 43.5428 18.4423 296° West 451 519 36,000  Level FlightAware ADS-B (LIBX)
Mon 09:20:18 PM 43.5879 18.3124 296° West 447 514 36,000  Level FlightAware ADS-B (LIBX)
Mon 09:20:51 PM 43.6179 18.2264 296° West 446 513 36,000  Level FlightAware ADS-B (LIBX)
Mon 09:21:21 PM 43.6453 18.1473 296° West 444 511 36,000  Level FlightAware ADS-B (LIBX)
Mon 09:21:50 PM 43.6702 18.0749 296° West 442 509 36,000  Level FlightAware ADS-B (LIBX)
Mon 09:22:21 PM 43.6980 17.9941 296° West 443 510 36,000  Level FlightAware ADS-B (LIBX)
Mon 09:22:51 PM 43.7240 17.9182 296° West 446 513 36,000  Level FlightAware ADS-B (LIBX)
Mon 09:23:22 PM 43.7509 17.8397 296° West 448 516 36,000  Level FlightAware ADS-B (LIBX)
Mon 09:23:49 PM 43.7750 17.7691 296° West 451 519 36,000  Level FlightAware ADS-B (LIBX)
Mon 09:24:46 PM 43.8267 17.6171 296° West 459 528 36,000  Level FlightAware ADS-B (LIBX)
Mon 09:25:16 PM 43.8538 17.5369 296° West 459 528 36,000 102 Level FlightAware ADS-B (LIBX)
Mon 09:25:45 PM 43.8791 17.4619 296° West 460 529 36,100 100 Climbing FlightAware ADS-B (LIBX)
Mon 09:26:16 PM 43.9074 17.3781 295° West 459 528 36,100 -98 Level FlightAware ADS-B (LIBX)
Mon 09:26:46 PM 43.9341 17.2984 295° West 458 527 36,000 -100 Descending FlightAware ADS-B (LIBX)
Mon 09:27:16 PM 43.9609 17.2183 295° West 458 527 36,000  Level FlightAware ADS-B (LIBX)
Mon 09:27:46 PM 43.9882 17.1366 295° West 457 526 36,000  Level FlightAware ADS-B (LIBX)
Mon 09:28:16 PM 44.0143 17.0581 295° West 457 526 36,000  Level FlightAware ADS-B (LIBX)
Mon 09:28:46 PM 44.0258 17.0232 295° West 455 524 36,000  Level FlightAware ADS-B (LIBX)
Mon 09:29:16 PM 44.0672 16.8981 295° West 456 525 36,000  Level FlightAware ADS-B (LIBX)
Mon 09:29:56 PM 44.0965 16.8093 295° West 454 522 36,000  Level FlightAware ADS-B (LIBX)
Mon 09:30:26 PM 44.1281 16.7127 295° West 456 525 36,000  Level FlightAware ADS-B (LIBX)
Mon 09:30:56 PM 44.1539 16.6340 295° West 462 532 36,000 -200 Level FlightAware ADS-B (LIBX)
Mon 09:31:26 PM 44.1810 16.5510 295° West 465 535 35,800 -600 Descending FlightAware ADS-B (LIBX)
Mon 09:31:56 PM 44.2061 16.4739 295° West 459 528 35,400 -900 Descending FlightAware ADS-B (LIBX)
Mon 09:32:26 PM 44.2320 16.3942 295° West 453 521 34,900 -971 Descending FlightAware ADS-B (LIBX)
Mon 09:33:04 PM 44.2637 16.2955 295° West 457 526 34,300 -432 Descending FlightAware ADS-B (LIBX)
Mon 09:34:31 PM 44.3425 16.0506 295° West 457 526 34,000 79 Descending FlightAware ADS-B (LIBX)
Mon 09:54:29 PM 45.4294 12.6929 302° West 468 539 36,000 97 Climbing FlightAware ADS-B (ETSE)
Mon 09:55:08 PM 45.4737 12.5925 302° West 470 541 36,000  Level FlightAware ADS-B (EDDM / MUC)
Mon 09:55:39 PM 45.5100 12.5102 302° West 472 543 36,000  Level FlightAware ADS-B (ETSE)
Mon 09:56:21 PM 45.5550 12.4078 302° West 475 547 36,000  Level FlightAware ADS-B (EDDM / MUC)
Mon 09:56:51 PM 45.5937 12.3195 302° West 474 545 36,000  Level FlightAware ADS-B (EDDM / MUC)
Mon 09:57:31 PM 45.6389 12.2163 302° West 479 551 36,000  Level FlightAware ADS-B (EDDM / MUC)
Mon 09:58:01 PM 45.6758 12.1312 302° West 481 554 36,000  Level FlightAware ADS-B (EDDM / MUC)
Mon 09:58:31 PM 45.7100 12.0515 302° West 484 557 36,000  Level FlightAware ADS-B (EDDM / MUC)
Mon 09:59:01 PM 45.7454 11.9700 302° West 485 558 36,000  Level FlightAware ADS-B (EDDM / MUC)
Mon 09:59:41 PM 45.7920 11.8624 302° West 487 560 36,000  Level FlightAware ADS-B (EDDM / MUC)
Mon 10:00:11 PM 45.8284 11.7776 301° West 487 560 36,000  Level FlightAware ADS-B (EDDM / MUC)
Mon 10:00:33 PM 45.8537 11.7185 301° West 487 560 36,000  Level FlightAware ADS-B (ETSE)
Mon 10:00:38 PM 45.8595 11.7048 301° West 487 560 36,000  Level FlightAware ADS-B (EDDM / MUC)
Mon 10:01:11 PM 45.8985 11.6134 301° West 489 563 36,000  Level FlightAware ADS-B (EDDM / MUC)
Mon 10:01:19 PM 45.9057 11.5963 301° West 489 563 36,000  Level FlightAware ADS-B (EDDM / MUC)
Mon 10:01:49 PM 45.9428 11.5095 301° West 491 565 36,000  Level FlightAware ADS-B (ETSE)
Mon 10:02:19 PM 45.9769 11.4292 302° West 492 566 36,000  Level FlightAware ADS-B (ETSE)
Mon 10:02:51 PM 46.0145 11.3404 301° West 492 566 36,000  Level FlightAware ADS-B (EDDM / MUC)
Mon 10:03:30 PM 46.0601 11.2322 301° West 492 566 36,000  Level FlightAware ADS-B (ETSE)
Mon 10:04:06 PM 46.1038 11.1280 301° West 489 563 36,000  Level FlightAware ADS-B (EDDM / MUC)
Mon 10:04:37 PM 46.1400 11.0413 301° West 487 560 36,000  Level FlightAware ADS-B (EDDM / MUC)
Mon 10:05:15 PM 46.1581 10.9982 301° West 484 557 36,000  Level FlightAware ADS-B (EDDM / MUC)
Mon 10:05:49 PM 46.2237 10.8401 301° West 482 555 36,000  Level FlightAware ADS-B (ETSE)
Mon 10:06:19 PM 46.2575 10.7588 301° West 481 554 36,000  Level FlightAware ADS-B (ETSE)
Mon 10:06:50 PM 46.2923 10.6721 298° West 480 552 36,000  Level FlightAware ADS-B (EDDM / MUC)
Mon 10:07:21 PM 46.3195 10.5858 293° West 476 548 36,000  Level FlightAware ADS-B (EDDM / MUC)
Mon 10:07:51 PM 46.3465 10.4951 293° West 474 545 36,000  Level FlightAware ADS-B (EDDM / MUC)
Mon 10:08:22 PM 46.3722 10.4082 293° West 475 547 36,000  Level FlightAware ADS-B (EDDM / MUC)
Mon 10:08:59 PM 46.4038 10.3006 293° West 476 548 36,000 -88 Level FlightAware ADS-B (ETSE)
Mon 10:09:30 PM 46.4308 10.2084 293° West 480 552 35,900  Descending FlightAware ADS-B (ETSE)
Mon 10:10:00 PM 46.4571 10.1183 293° West 483 556 36,000 100 Climbing FlightAware ADS-B (ETSE)
Mon 10:10:30 PM 46.4835 10.0276 293° West 485 558 36,000 100 Level FlightAware ADS-B (EDDM / MUC)
Mon 10:11:00 PM 46.5071 9.9465 293° West 487 560 36,100 94 Climbing FlightAware ADS-B (ETSE)
Mon 10:11:34 PM 46.5392 9.8353 293° West 485 558 36,100  Level FlightAware ADS-B (EDDM / MUC)
Mon 10:12:08 PM 46.5671 9.7381 293° West 482 555 36,100 -92 Level FlightAware ADS-B (ETSE)
Mon 10:12:39 PM 46.5944 9.6429 293° West 480 552 36,000 -97 Descending FlightAware ADS-B (ETSE)
Mon 10:13:10 PM 46.6203 9.5519 292° West 477 549 36,000  Level FlightAware ADS-B (ETSE)
Mon 10:13:17 PM 46.6268 9.5289 293° West 476 548 36,000  Level FlightAware ADS-B (EDDM / MUC)
Mon 10:13:54 PM 46.6187 9.5576 292° West 473 544 36,000  Level FlightAware ADS-B (KGHG)
Mon 10:14:35 PM 46.6904 9.3045 292° West 469 540 36,000  Level FlightAware ADS-B (EDDM / MUC)
Mon 10:15:07 PM 46.7096 9.2358 292° West 465 535 36,000  Level FlightAware ADS-B (EDDM / MUC)
Mon 10:15:37 PM 46.7415 9.1225 292° West 461 531 36,000  Level FlightAware ADS-B (EDDM / MUC)
Mon 10:16:07 PM 46.7657 9.0361 292° West 459 528 36,000  Level FlightAware ADS-B (EDDM / MUC)
Mon 10:16:37 PM 46.7841 8.9701 292° West 458 527 36,000  Level FlightAware ADS-B (EDDM / MUC)
Mon 10:17:16 PM 46.8198 8.8402 292° West 457 526 36,000  Level FlightAware ADS-B (EDDM / MUC)
Mon 10:17:48 PM 46.8451 8.7486 292° West 457 526 36,000  Level FlightAware ADS-B (EDDM / MUC)
Mon 10:18:19 PM 46.8648 8.6773 292° West 455 524 36,000  Level FlightAware ADS-B (ETSE)
Mon 10:18:55 PM 46.8940 8.5706 292° West 456 525 36,000 -88 Level FlightAware ADS-B (EDDM / MUC)
Mon 10:19:27 PM 46.9184 8.4814 292° West 459 528 35,900 -774 Descending FlightAware ADS-B (EDDM / MUC)
Mon 10:19:57 PM 46.9460 8.3792 291° West 459 528 35,200 -1,612 Descending FlightAware ADS-B (EDDM / MUC)
Mon 10:20:34 PM 46.9734 8.2780 292° West 464 534 34,100 -1,059 Descending FlightAware ADS-B (ETSE)
Mon 10:21:05 PM 46.9994 8.1818 292° West 471 542 34,000 -98 Descending FlightAware ADS-B (EDDM / MUC)
Mon 10:21:35 PM 47.0226 8.0956 291° West 474 545 34,000  Level FlightAware ADS-B (EDDM / MUC)
Mon 10:22:49 PM 47.0838 7.8714 297° West 470 541 34,000  Level FlightAware ADS-B (ETSE)
Mon 10:23:27 PM 47.1222 7.7673 299° West 468 539 34,000  Level FlightAware ADS-B (ETSE)
Mon 10:24:06 PM 47.1637 7.6568 299° West 469 540 34,000  Level FlightAware ADS-B (ETSE)
Mon 10:24:55 PM 47.1711 7.6372 299° West 469 540 34,000 -895 Level FlightAware ADS-B (EDDM / MUC)
Mon 10:50:35 PM 48.7085 3.6090 313° West 294 338 10,300 -927 Descending FlightAware ADS-B
Mon 10:52:51 PM 48.8282 3.4101 312° West 280 322 8,100 -942 Descending FlightAware ADS-B
Mon 10:53:46 PM 48.8664 3.3466 311° West 274 315 7,300 -955 Descending FlightAware ADS-B
Mon 10:55:03 PM 48.9009 3.2757 302° West 266 306 6,000 -1,013 Descending FlightAware ADS-B
Mon 10:57:00 PM 48.9544 2.9327 283° West  Level Estimated
Mon 10:58:00 PM 48.9815 2.7566 283° West  Level Estimated
Mon 10:59:00 PM 49.0082 2.5802 283° West  Level Estimated
Mon 11:00:00 PM 49.0128 2.5500 283° West  Level Estimated
Mon 11:01:00 PM 49.0128 2.5500 North  Level Estimated
Mon 11:02:00 PM 49.0128 2.5500 North  Level Estimated
Mon 11:03:00 PM 49.0128 2.5500 North  Level Estimated
Mon 11:04:00 PM 49.0128 2.5500 North  Level Estimated

Login

Don't have an account? Register now (free) for customized features, flight alerts, and more!